Time;durP1;ratioP1;P1;durP2;ratioP2;P2;SDS_P1;SDS_P2;PMS_P1;PMS_P2;Temp;Humidity;BMP_temperature;BMP_pressure;BME280_temperature;BME280_humidity;BME280_pressure;Samples;Min_cycle;Max_cycle;Signal;HPM_P1;HPM_P2
2023/08/12 00:02:13;;;;;;;2.65;2.45;;;14.30;99.90;;;;;;5097508;28;20020;-76
2023/08/12 00:04:39;;;;;;;10.55;2.38;;;14.30;99.90;;;;;;5096919;28;20374;-78
2023/08/12 00:07:05;;;;;;;3.70;2.47;;;14.20;99.90;;;;;;5096517;28;20150;-76
2023/08/12 00:09:30;;;;;;;5.75;2.20;;;14.20;99.90;;;;;;5096111;28;20028;-77
2023/08/12 00:11:56;;;;;;;6.10;2.60;;;14.20;99.90;;;;;;5096981;28;20028;-75
2023/08/12 00:14:21;;;;;;;2.10;1.80;;;14.10;99.90;;;;;;5097760;28;20073;-77
2023/08/12 00:16:47;;;;;;;2.38;2.00;;;14.10;99.90;;;;;;5095684;28;20028;-78
2023/08/12 00:19:13;;;;;;;5.28;2.30;;;14.10;99.90;;;;;;5097825;28;20024;-77
2023/08/12 00:21:39;;;;;;;2.55;2.33;;;14.10;99.90;;;;;;5097213;28;20031;-77
2023/08/12 00:24:05;;;;;;;3.00;2.67;;;14.10;99.90;;;;;;5096495;28;20020;-76
2023/08/12 00:26:30;;;;;;;2.58;2.20;;;14.10;99.90;;;;;;5097755;28;20030;-78
2023/08/12 00:28:56;;;;;;;1.95;1.83;;;14.10;99.90;;;;;;5097292;28;20024;-77
2023/08/12 00:31:21;;;;;;;4.47;2.60;;;14.20;99.90;;;;;;5097842;28;20028;-76
2023/08/12 00:33:47;;;;;;;3.45;2.00;;;14.10;99.90;;;;;;5097721;28;20074;-76
2023/08/12 00:36:13;;;;;;;2.47;1.92;;;14.00;99.90;;;;;;5096218;28;20024;-77
2023/08/12 00:38:38;;;;;;;2.70;1.85;;;14.10;99.90;;;;;;5098264;28;20062;-76
2023/08/12 00:41:04;;;;;;;2.20;2.00;;;14.00;99.90;;;;;;5098175;28;20019;-76
2023/08/12 00:43:29;;;;;;;2.83;2.28;;;14.10;99.90;;;;;;5098883;28;20039;-77
2023/08/12 00:45:55;;;;;;;2.70;2.05;;;14.00;99.90;;;;;;5098927;28;20031;-76
2023/08/12 00:48:21;;;;;;;2.50;2.20;;;13.80;99.90;;;;;;5097342;28;20111;-78
2023/08/12 00:50:47;;;;;;;2.40;2.15;;;13.80;99.90;;;;;;5099088;28;20063;-78
2023/08/12 00:53:14;;;;;;;2.47;2.22;;;13.80;99.90;;;;;;5098075;28;20142;-77
2023/08/12 00:55:40;;;;;;;2.42;2.15;;;13.70;99.90;;;;;;5098990;28;20023;-78
2023/08/12 00:58:06;;;;;;;3.15;2.20;;;13.70;99.90;;;;;;5098858;28;20031;-77
2023/08/12 01:00:32;;;;;;;4.13;2.65;;;13.60;99.90;;;;;;5099403;28;20430;-76
2023/08/12 01:03:00;;;;;;;2.08;1.88;;;13.60;99.90;;;;;;5098760;28;20024;-77
2023/08/12 01:05:25;;;;;;;3.17;1.90;;;13.60;99.90;;;;;;5098394;28;20063;-76
2023/08/12 01:07:53;;;;;;;2.70;1.88;;;13.60;99.90;;;;;;5096755;28;20375;-77
2023/08/12 01:10:20;;;;;;;3.60;2.40;;;13.50;99.90;;;;;;5096441;28;20374;-76
2023/08/12 01:12:49;;;;;;;2.75;2.45;;;13.50;99.90;;;;;;5096636;28;20040;-78
2023/08/12 01:15:20;;;;;;;2.40;2.20;;;13.60;99.90;;;;;;5095637;28;20493;-78
2023/08/12 01:17:51;;;;;;;2.20;2.00;;;13.50;99.90;;;;;;5097957;28;20024;-78
2023/08/12 01:20:24;;;;;;;4.97;2.50;;;13.50;99.90;;;;;;5097957;28;20024;-76
2023/08/12 01:22:56;;;;;;;2.10;1.90;;;13.50;99.90;;;;;;5096894;28;20089;-78
2023/08/12 01:25:21;;;;;;;3.78;1.98;;;13.40;99.90;;;;;;5099556;28;20047;-78
2023/08/12 01:27:47;;;;;;;5.03;1.98;;;13.40;99.90;;;;;;5098911;28;20454;-76
2023/08/12 01:30:13;;;;;;;4.43;2.17;;;13.30;99.90;;;;;;5097069;28;20031;-78
2023/08/12 01:32:38;;;;;;;2.65;2.28;;;13.30;99.90;;;;;;5098665;28;20435;-77
2023/08/12 01:35:36;;;;;;;3.08;2.00;;;13.30;99.90;;;;;;5097818;28;20028;-77
2023/08/12 01:38:05;;;;;;;2.30;2.10;;;13.40;99.90;;;;;;5095976;28;20040;-78
2023/08/12 01:40:32;;;;;;;8.75;3.15;;;13.40;99.90;;;;;;5098470;28;20028;-78
2023/08/12 01:42:58;;;;;;;2.47;1.80;;;13.30;99.90;;;;;;5098148;28;20477;-78
2023/08/12 01:45:24;;;;;;;3.05;1.92;;;13.30;99.90;;;;;;5099377;28;20078;-78
2023/08/12 01:47:51;;;;;;;1.77;1.50;;;13.30;99.90;;;;;;5098193;28;20020;-79
2023/08/12 01:50:17;;;;;;;3.67;1.85;;;13.20;99.90;;;;;;5097837;28;20027;-78
2023/08/12 01:52:42;;;;;;;2.58;1.90;;;13.20;99.90;;;;;;5097369;28;20031;-77
2023/08/12 01:55:08;;;;;;;3.03;1.77;;;13.20;99.90;;;;;;5097476;28;20028;-78
2023/08/12 01:57:34;;;;;;;1.92;1.70;;;13.10;99.90;;;;;;5097056;28;20016;-78
2023/08/12 02:00:01;;;;;;;1.83;1.40;;;13.10;99.90;;;;;;5097170;28;20031;-78
2023/08/12 02:02:27;;;;;;;2.00;1.73;;;13.10;99.90;;;;;;5097503;28;20024;-78
2023/08/12 02:04:53;;;;;;;2.00;1.40;;;13.10;99.90;;;;;;5097081;28;20028;-79
2023/08/12 02:07:18;;;;;;;1.75;1.65;;;13.00;99.90;;;;;;5100754;28;20029;-78
2023/08/12 02:09:44;;;;;;;2.17;1.98;;;13.00;99.90;;;;;;5103606;28;20020;-78
2023/08/12 02:12:09;;;;;;;2.55;1.83;;;13.00;99.90;;;;;;5102832;28;20024;-78
2023/08/12 02:14:36;;;;;;;2.17;1.85;;;13.00;99.90;;;;;;5097586;28;20107;-78
2023/08/12 02:17:05;;;;;;;1.70;1.55;;;13.00;99.90;;;;;;5094528;28;20028;-76
2023/08/12 02:19:32;;;;;;;3.65;1.92;;;13.00;99.90;;;;;;5102112;28;20035;-76
2023/08/12 02:21:57;;;;;;;3.33;1.98;;;13.00;99.90;;;;;;5113934;28;20024;-77
2023/08/12 02:24:23;;;;;;;2.00;1.85;;;13.00;99.90;;;;;;5114556;28;20072;-76
2023/08/12 02:26:48;;;;;;;3.25;1.67;;;12.90;99.90;;;;;;5115485;28;20016;-77
2023/08/12 02:29:14;;;;;;;3.70;1.85;;;12.90;99.90;;;;;;5113905;28;20392;-77
2023/08/12 02:31:40;;;;;;;3.00;2.10;;;12.80;99.90;;;;;;5115298;28;20019;-76
2023/08/12 02:34:05;;;;;;;2.00;1.88;;;12.90;99.90;;;;;;5113818;28;20518;-77
2023/08/12 02:36:31;;;;;;;1.80;1.70;;;12.80;99.90;;;;;;5114302;28;20058;-76
2023/08/12 02:38:56;;;;;;;1.85;1.73;;;12.80;99.90;;;;;;5115032;28;20028;-76
2023/08/12 02:41:22;;;;;;;2.25;1.98;;;12.80;99.90;;;;;;5114838;28;20019;-76
2023/08/12 02:43:48;;;;;;;2.65;1.85;;;12.80;99.90;;;;;;5113839;28;20031;-76
2023/08/12 02:46:15;;;;;;;4.43;2.13;;;12.80;99.90;;;;;;5113832;28;20020;-76
2023/08/12 02:48:41;;;;;;;2.88;1.65;;;12.70;99.90;;;;;;5114709;28;20012;-75
2023/08/12 02:51:06;;;;;;;3.50;1.52;;;12.70;99.90;;;;;;5114366;28;20015;-76
2023/08/12 02:53:32;;;;;;;2.28;1.55;;;12.70;99.90;;;;;;5113091;28;20019;-76
2023/08/12 02:55:57;;;;;;;2.47;1.88;;;12.70;99.90;;;;;;5114087;28;20016;-76
2023/08/12 02:58:23;;;;;;;2.25;2.05;;;12.70;99.90;;;;;;5112581;28;20111;-76
2023/08/12 03:00:49;;;;;;;2.00;1.90;;;12.70;99.90;;;;;;5113005;28;20019;-77
2023/08/12 03:03:14;;;;;;;2.83;1.63;;;12.70;99.90;;;;;;5114226;28;20024;-76
2023/08/12 03:05:40;;;;;;;3.45;1.92;;;12.70;99.90;;;;;;5113087;28;20031;-76
2023/08/12 03:08:06;;;;;;;5.05;1.67;;;12.70;99.90;;;;;;5113511;28;20022;-77
2023/08/12 03:10:34;;;;;;;5.80;1.95;;;12.80;99.90;;;;;;5112937;28;20027;-78
2023/08/12 03:13:00;;;;;;;2.15;1.95;;;12.80;99.90;;;;;;5114350;28;20048;-76
2023/08/12 03:15:25;;;;;;;1.80;1.70;;;12.80;99.90;;;;;;5114959;28;20027;-76
2023/08/12 03:17:51;;;;;;;1.75;1.65;;;12.80;99.90;;;;;;5113091;28;20501;-76
2023/08/12 03:20:16;;;;;;;2.78;2.10;;;12.80;99.90;;;;;;5113499;28;20028;-76
2023/08/12 03:22:42;;;;;;;1.77;1.67;;;12.70;99.90;;;;;;5114349;28;20023;-76
2023/08/12 03:25:08;;;;;;;3.47;2.38;;;12.70;99.90;;;;;;5114633;28;20537;-76
2023/08/12 03:27:33;;;;;;;5.20;2.00;;;12.60;99.90;;;;;;5113201;28;20024;-77
2023/08/12 03:29:59;;;;;;;2.20;1.77;;;12.60;99.90;;;;;;5113237;28;20028;-76
2023/08/12 03:32:25;;;;;;;5.10;1.83;;;12.70;99.90;;;;;;5112895;28;20059;-76
2023/08/12 03:34:51;;;;;;;4.53;1.92;;;12.60;99.90;;;;;;5115052;28;20468;-77
2023/08/12 03:37:18;;;;;;;2.80;1.50;;;12.60;99.90;;;;;;5114817;28;20533;-76
2023/08/12 03:39:44;;;;;;;2.08;1.95;;;12.70;99.90;;;;;;5113158;28;20028;-76
2023/08/12 03:42:09;;;;;;;1.95;1.67;;;12.70;99.90;;;;;;5115271;28;20020;-77
2023/08/12 03:44:35;;;;;;;5.85;1.90;;;12.60;99.90;;;;;;5114569;28;20027;-76
2023/08/12 03:47:00;;;;;;;2.75;1.75;;;12.60;99.90;;;;;;5113731;28;20024;-76
2023/08/12 03:49:26;;;;;;;2.10;1.95;;;12.60;99.90;;;;;;5113689;28;20024;-76
2023/08/12 03:51:51;;;;;;;3.78;1.55;;;12.60;99.90;;;;;;5114299;28;20068;-77
2023/08/12 03:54:18;;;;;;;5.72;1.80;;;12.60;99.90;;;;;;5113603;28;20114;-78
2023/08/12 03:56:43;;;;;;;5.22;1.77;;;12.60;99.90;;;;;;5113188;28;20042;-76
2023/08/12 03:59:09;;;;;;;8.50;2.03;;;12.60;99.90;;;;;;5113002;28;20551;-77
2023/08/12 04:01:35;;;;;;;1.70;1.60;;;12.60;99.90;;;;;;5114399;28;20469;-76
2023/08/12 04:04:00;;;;;;;2.55;1.55;;;12.50;99.90;;;;;;5113081;28;20031;-76
2023/08/12 04:06:26;;;;;;;3.38;1.80;;;12.60;99.90;;;;;;5115176;28;20024;-77
2023/08/12 04:08:51;;;;;;;1.80;1.42;;;12.60;99.90;;;;;;5115378;28;20105;-77
2023/08/12 04:11:17;;;;;;;1.70;1.60;;;12.60;99.90;;;;;;5115014;28;20024;-76
2023/08/12 04:13:43;;;;;;;1.67;1.58;;;12.60;99.90;;;;;;5114949;28;20473;-76
2023/08/12 04:16:08;;;;;;;2.90;1.85;;;12.60;99.90;;;;;;5114303;28;20103;-78
2023/08/12 04:18:34;;;;;;;3.50;1.83;;;12.70;99.90;;;;;;5114688;28;20048;-76
2023/08/12 04:20:59;;;;;;;2.80;1.90;;;12.70;99.90;;;;;;5116331;28;20057;-77
2023/08/12 04:23:25;;;;;;;2.05;1.85;;;12.70;99.90;;;;;;5126056;28;20051;-77
2023/08/12 04:25:54;;;;;;;2.47;1.85;;;12.80;99.90;;;;;;5125137;28;20099;-78
2023/08/12 04:28:19;;;;;;;4.90;1.67;;;12.90;99.90;;;;;;5129106;28;20020;-79
2023/08/12 04:30:47;;;;;;;3.47;1.75;;;12.80;99.90;;;;;;5124853;28;20024;-78
2023/08/12 04:33:13;;;;;;;3.53;2.13;;;12.80;99.90;;;;;;5127278;28;20031;-78
2023/08/12 04:35:40;;;;;;;2.45;1.77;;;13.00;99.90;;;;;;5125729;28;20028;-78
2023/08/12 04:38:05;;;;;;;2.90;2.00;;;12.90;99.90;;;;;;5124070;28;20015;-78
2023/08/12 04:40:31;;;;;;;3.17;2.22;;;12.90;99.90;;;;;;5123968;28;20507;-78
2023/08/12 04:42:58;;;;;;;4.25;1.70;;;12.90;99.90;;;;;;5123698;28;20031;-78
2023/08/12 04:45:24;;;;;;;2.13;1.73;;;12.90;99.90;;;;;;5122155;28;20030;-78
2023/08/12 04:47:50;;;;;;;3.53;2.05;;;12.90;99.90;;;;;;5122694;28;20024;-77
2023/08/12 04:50:16;;;;;;;1.90;1.70;;;12.90;99.90;;;;;;5124073;28;20055;-79
2023/08/12 04:52:41;;;;;;;3.70;2.70;;;12.90;99.90;;;;;;5119666;28;20042;-79
2023/08/12 04:55:07;;;;;;;4.18;2.50;;;14.60;99.90;;;;;;5117530;28;20050;-77
2023/08/12 04:57:33;;;;;;;8.50;3.17;;;15.70;99.90;;;;;;5114774;28;20028;-77
2023/08/12 04:59:58;;;;;;;1.88;1.73;;;16.20;99.90;;;;;;5115758;28;20101;-78
2023/08/12 05:02:24;;;;;;;2.88;2.22;;;16.70;99.90;;;;;;5118367;28;20015;-76
2023/08/12 05:04:51;;;;;;;4.68;1.60;;;17.00;99.90;;;;;;5119207;28;20026;-77
2023/08/12 05:07:17;;;;;;;1.80;1.70;;;16.90;99.90;;;;;;5114635;28;20031;-78
2023/08/12 05:09:45;;;;;;;6.28;2.00;;;16.40;99.90;;;;;;5108913;28;20490;-77
2023/08/12 05:12:11;;;;;;;3.63;1.67;;;16.20;99.90;;;;;;5094508;28;20024;-78
2023/08/12 05:14:39;;;;;;;2.05;1.90;;;15.80;99.90;;;;;;5096711;28;20042;-78
2023/08/12 05:17:05;;;;;;;1.75;1.45;;;16.30;99.90;;;;;;5097105;28;20039;-78
2023/08/12 05:19:31;;;;;;;3.17;1.67;;;16.10;99.90;;;;;;5096636;28;20028;-78
2023/08/12 05:21:57;;;;;;;3.15;2.35;;;15.80;99.90;;;;;;5095524;28;20070;-77
2023/08/12 05:24:22;;;;;;;3.83;2.88;;;15.90;99.90;;;;;;5095354;28;20085;-77
2023/08/12 05:26:48;;;;;;;6.15;3.40;;;16.30;99.90;;;;;;5094935;28;20016;-76
2023/08/12 05:29:13;;;;;;;10.45;6.57;;;16.50;99.90;;;;;;5096669;28;20039;-77
2023/08/12 05:31:39;;;;;;;5.72;3.53;;;16.40;99.90;;;;;;5094957;28;20024;-78
2023/08/12 05:34:05;;;;;;;2.38;1.98;;;16.50;99.90;;;;;;5095426;28;20470;-78
2023/08/12 05:36:30;;;;;;;3.00;2.80;;;16.20;99.90;;;;;;5095714;28;20044;-78
2023/08/12 05:38:56;;;;;;;2.40;2.17;;;16.40;99.90;;;;;;5095866;28;20081;-76
2023/08/12 05:41:22;;;;;;;2.72;2.00;;;16.60;99.90;;;;;;5094626;28;20073;-77
2023/08/12 05:43:48;;;;;;;1.95;1.75;;;16.70;99.90;;;;;;5095142;28;20390;-78
2023/08/12 05:46:14;;;;;;;2.60;1.90;;;17.30;99.90;;;;;;5096445;28;20097;-76
2023/08/12 05:48:40;;;;;;;4.63;2.40;;;17.10;99.90;;;;;;5094939;28;20631;-77
2023/08/12 05:51:05;;;;;;;2.80;1.90;;;16.80;99.90;;;;;;5094534;28;20024;-77
2023/08/12 05:53:32;;;;;;;2.05;1.85;;;16.90;99.90;;;;;;5094293;28;20099;-77
2023/08/12 05:55:58;;;;;;;2.08;1.88;;;16.90;99.90;;;;;;5095548;28;20027;-77
2023/08/12 05:58:24;;;;;;;2.75;2.47;;;17.00;99.90;;;;;;5095868;28;20024;-78
2023/08/12 06:00:50;;;;;;;2.60;2.40;;;17.10;99.90;;;;;;5093035;28;20031;-76
2023/08/12 06:03:15;;;;;;;3.10;2.67;;;17.80;99.90;;;;;;5093865;28;20027;-79
2023/08/12 06:05:42;;;;;;;2.50;2.30;;;17.70;99.90;;;;;;5094020;28;20111;-78
2023/08/12 06:08:08;;;;;;;2.75;2.08;;;17.80;99.90;;;;;;5092490;28;20020;-78
2023/08/12 06:10:34;;;;;;;2.80;2.38;;;17.70;99.90;;;;;;5093232;28;20020;-78
2023/08/12 06:13:00;;;;;;;9.73;2.58;;;17.80;99.90;;;;;;5093924;28;20053;-77
2023/08/12 06:15:25;;;;;;;2.40;2.20;;;17.90;99.90;;;;;;5092739;28;20093;-78
2023/08/12 06:17:51;;;;;;;2.60;2.38;;;17.80;99.90;;;;;;5092312;28;20028;-78
2023/08/12 06:20:17;;;;;;;2.22;2.10;;;17.80;99.90;;;;;;5096546;28;20081;-78
2023/08/12 06:22:42;;;;;;;2.45;2.10;;;18.00;99.90;;;;;;5094909;28;20677;-78
2023/08/12 06:25:08;;;;;;;3.70;2.55;;;18.00;99.90;;;;;;5095387;28;20020;-78
2023/08/12 06:27:33;;;;;;;2.25;2.05;;;18.20;99.90;;;;;;5094532;28;20031;-77
2023/08/12 06:29:59;;;;;;;4.22;1.92;;;18.20;99.90;;;;;;5094730;28;20020;-78
2023/08/12 06:32:25;;;;;;;1.92;1.80;;;18.20;99.90;;;;;;5095826;28;20039;-79
2023/08/12 06:34:50;;;;;;;2.10;1.88;;;18.20;99.90;;;;;;5101014;28;20031;-79
2023/08/12 06:37:16;;;;;;;3.90;2.70;;;18.30;99.90;;;;;;5106508;28;20150;-78
2023/08/12 06:39:42;;;;;;;5.25;1.98;;;18.50;99.90;;;;;;5098888;28;20024;-80
2023/08/12 06:42:07;;;;;;;3.45;2.28;;;18.60;99.90;;;;;;5096670;28;20024;-77
2023/08/12 06:44:33;;;;;;;3.63;2.67;;;18.50;99.90;;;;;;5092363;28;20016;-77
2023/08/12 06:46:59;;;;;;;2.72;2.53;;;18.50;99.90;;;;;;5092042;28;20019;-77
2023/08/12 06:49:24;;;;;;;5.55;3.78;;;18.60;99.90;;;;;;5091844;28;20081;-77
2023/08/12 06:51:50;;;;;;;3.08;2.15;;;18.70;99.90;;;;;;5091961;28;20027;-77
2023/08/12 06:54:15;;;;;;;3.15;2.28;;;18.70;99.90;;;;;;5092306;28;20258;-77
2023/08/12 06:56:41;;;;;;;1.90;1.48;;;18.80;99.90;;;;;;5092876;28;20074;-77
2023/08/12 06:59:07;;;;;;;2.45;2.25;;;18.90;99.90;;;;;;5091837;28;20084;-77
2023/08/12 07:01:33;;;;;;;5.18;1.77;;;19.10;99.90;;;;;;5091921;28;20359;-77
2023/08/12 07:03:58;;;;;;;2.60;2.40;;;19.30;99.90;;;;;;5091904;28;20016;-77
2023/08/12 07:06:24;;;;;;;2.47;1.83;;;19.50;99.90;;;;;;5091281;28;20032;-77
2023/08/12 07:08:49;;;;;;;2.28;1.80;;;19.70;99.90;;;;;;5092868;28;20492;-78
2023/08/12 07:11:15;;;;;;;4.13;2.58;;;19.70;99.90;;;;;;5091652;28;20080;-76
2023/08/12 07:13:42;;;;;;;2.33;1.88;;;19.90;99.90;;;;;;5092764;28;20094;-76
2023/08/12 07:16:08;;;;;;;2.05;1.35;;;20.10;99.90;;;;;;5091319;28;20367;-77
2023/08/12 07:18:33;;;;;;;1.42;1.33;;;20.20;99.90;;;;;;5092233;28;20024;-76
2023/08/12 07:20:59;;;;;;;2.25;1.80;;;20.40;99.90;;;;;;5091789;28;20051;-76
2023/08/12 07:23:25;;;;;;;1.73;1.63;;;20.50;99.90;;;;;;5090646;28;20067;-76
2023/08/12 07:25:51;;;;;;;2.30;1.67;;;20.60;99.90;;;;;;5090818;28;20072;-75
2023/08/12 07:28:16;;;;;;;2.08;1.58;;;20.80;99.90;;;;;;5091648;28;20108;-75
2023/08/12 07:30:42;;;;;;;1.70;1.55;;;20.90;99.90;;;;;;5090774;28;20051;-76
2023/08/12 07:33:08;;;;;;;1.27;1.17;;;21.10;99.90;;;;;;5092092;28;20028;-76
2023/08/12 07:35:33;;;;;;;1.52;1.20;;;21.40;99.90;;;;;;5091559;28;20639;-76
2023/08/12 07:37:59;;;;;;;4.18;2.45;;;21.60;99.90;;;;;;5091997;28;20024;-76
2023/08/12 07:40:25;;;;;;;1.10;1.10;;;21.80;99.90;;;;;;5092139;28;20154;-76
2023/08/12 07:42:50;;;;;;;7.45;1.33;;;22.00;99.90;;;;;;5091994;28;20017;-76
2023/08/12 07:45:16;;;;;;;3.15;1.58;;;22.20;99.90;;;;;;5092093;28;20024;-77
2023/08/12 07:47:41;;;;;;;1.80;1.25;;;22.20;99.90;;;;;;5091722;28;20528;-77
2023/08/12 07:50:07;;;;;;;1.85;1.52;;;22.50;99.90;;;;;;5091945;28;20082;-78
2023/08/12 07:52:33;;;;;;;2.13;1.35;;;22.70;99.90;;;;;;5090759;28;20024;-78
2023/08/12 07:54:59;;;;;;;4.47;1.58;;;22.80;99.90;;;;;;5091877;28;20428;-78
2023/08/12 07:57:24;;;;;;;2.20;1.65;;;22.70;97.70;;;;;;5091478;28;20024;-77
2023/08/12 07:59:51;;;;;;;2.45;1.48;;;22.80;99.60;;;;;;5090498;28;20027;-78
2023/08/12 08:02:17;;;;;;;1.92;1.30;;;23.00;99.10;;;;;;5094085;28;20024;-76
2023/08/12 08:04:43;;;;;;;1.65;1.55;;;23.30;99.80;;;;;;5093617;28;20052;-78
2023/08/12 08:07:11;;;;;;;1.52;1.10;;;23.30;98.50;;;;;;5094751;28;20058;-80
2023/08/12 08:09:36;;;;;;;2.63;1.50;;;23.50;98.40;;;;;;5096607;28;20066;-77
2023/08/12 08:12:02;;;;;;;1.60;1.50;;;23.60;97.50;;;;;;5096706;28;20106;-77
2023/08/12 08:14:28;;;;;;;3.97;1.27;;;23.70;96.10;;;;;;5095805;28;20439;-75
2023/08/12 08:16:53;;;;;;;1.90;1.20;;;23.90;96.00;;;;;;5096020;28;20125;-75
2023/08/12 08:19:19;;;;;;;1.33;1.20;;;24.00;95.10;;;;;;5096078;28;20034;-75
2023/08/12 08:21:45;;;;;;;4.55;1.55;;;24.10;94.70;;;;;;5097887;28;20035;-74
2023/08/12 08:24:12;;;;;;;1.55;1.20;;;24.20;95.00;;;;;;5095576;28;20038;-76
2023/08/12 08:26:40;;;;;;;1.00;0.95;;;24.20;93.00;;;;;;5097525;28;20024;-76
2023/08/12 08:29:06;;;;;;;5.78;1.25;;;24.30;93.50;;;;;;5097982;28;20080;-76
2023/08/12 08:31:32;;;;;;;1.25;1.17;;;24.50;93.50;;;;;;5106309;22;20045;-79
2023/08/12 08:33:58;;;;;;;1.50;1.23;;;24.50;91.60;;;;;;5056185;28;20021;-79
2023/08/12 08:36:24;;;;;;;1.25;0.90;;;24.60;90.70;;;;;;5055413;28;20076;-80
2023/08/12 08:38:50;;;;;;;1.23;1.10;;;24.80;91.30;;;;;;5038761;28;20048;-79
2023/08/12 08:41:17;;;;;;;3.03;1.38;;;25.00;90.50;;;;;;5038463;28;20071;-80
2023/08/12 08:43:45;;;;;;;3.10;1.10;;;25.00;85.30;;;;;;5056321;28;20025;-80
2023/08/12 08:46:15;;;;;;;1.58;1.23;;;25.10;87.10;;;;;;5037924;28;20032;-79
2023/08/12 08:48:42;;;;;;;1.48;1.13;;;25.30;86.70;;;;;;5056099;28;20332;-80
2023/08/12 08:51:10;;;;;;;1.42;1.02;;;25.40;81.70;;;;;;5055885;28;20092;-80
2023/08/12 08:53:39;;;;;;;1.05;0.95;;;25.40;82.40;;;;;;5056705;28;20096;-79
2023/08/12 08:56:07;;;;;;;1.52;1.10;;;25.50;82.40;;;;;;5056332;28;20029;-80
2023/08/12 08:58:33;;;;;;;0.80;0.70;;;25.50;77.40;;;;;;5038974;28;20029;-80
2023/08/12 09:00:59;;;;;;;1.50;1.15;;;25.70;79.00;;;;;;5038365;28;20048;-80
2023/08/12 09:03:25;;;;;;;2.35;1.60;;;25.70;73.70;;;;;;5038820;28;20469;-79
2023/08/12 09:05:52;;;;;;;0.65;0.63;;;25.80;69.30;;;;;;5038595;28;20025;-80
2023/08/12 09:08:18;;;;;;;1.55;0.93;;;25.80;66.60;;;;;;5056287;28;20028;-79
2023/08/12 09:10:46;;;;;;;1.40;1.15;;;25.90;69.60;;;;;;5056194;28;20029;-80
2023/08/12 09:13:13;;;;;;;1.23;0.60;;;26.00;69.10;;;;;;5039066;28;20032;-80
2023/08/12 09:15:38;;;;;;;0.80;0.70;;;26.10;67.00;;;;;;5038526;28;20029;-80
2023/08/12 09:18:07;;;;;;;1.08;0.82;;;26.20;66.50;;;;;;5069507;28;20029;-78
2023/08/12 09:20:36;;;;;;;1.33;0.95;;;26.30;66.70;;;;;;5071215;28;20020;-79
2023/08/12 09:23:02;;;;;;;1.20;1.10;;;26.40;64.00;;;;;;5037371;28;20017;-79
2023/08/12 09:25:29;;;;;;;1.48;1.05;;;26.50;65.50;;;;;;5055331;28;20024;-78
2023/08/12 09:27:58;;;;;;;0.73;0.70;;;26.50;64.50;;;;;;5038534;28;20494;-77
2023/08/12 09:30:23;;;;;;;1.38;0.85;;;26.50;65.20;;;;;;5054315;28;20079;-78
2023/08/12 09:33:03;;;;;;;2.80;0.90;;;26.50;66.20;;;;;;5053949;28;20036;-78
2023/08/12 09:35:37;;;;;;;1.02;0.93;;;26.30;64.00;;;;;;5036109;28;20115;-77
2023/08/12 09:38:04;;;;;;;1.67;0.90;;;26.30;67.60;;;;;;5053804;28;20021;-79
2023/08/12 09:40:32;;;;;;;0.95;0.90;;;26.30;67.50;;;;;;5054119;28;20052;-77
2023/08/12 09:42:58;;;;;;;0.80;0.80;;;26.40;64.10;;;;;;5055822;28;20025;-78
2023/08/12 09:45:25;;;;;;;1.23;1.00;;;26.40;66.60;;;;;;5054817;28;20585;-77
2023/08/12 09:47:51;;;;;;;1.02;0.77;;;26.50;67.30;;;;;;5053580;28;20507;-77
2023/08/12 09:50:17;;;;;;;3.50;0.98;;;26.60;65.70;;;;;;5036574;28;20450;-77
2023/08/12 09:52:43;;;;;;;1.00;0.90;;;26.70;66.10;;;;;;5035822;28;20114;-77
2023/08/12 09:55:11;;;;;;;1.45;1.00;;;26.70;67.50;;;;;;5053989;28;20025;-77
2023/08/12 09:57:43;;;;;;;0.90;0.90;;;26.70;68.90;;;;;;5053494;28;20557;-77
2023/08/12 10:00:16;;;;;;;1.23;1.02;;;26.80;69.00;;;;;;5037031;28;20098;-78
2023/08/12 10:02:47;;;;;;;0.80;0.80;;;26.70;67.10;;;;;;5036951;28;20040;-77
2023/08/12 10:05:27;;;;;;;2.75;0.82;;;26.80;69.80;;;;;;5036854;28;20419;-77
2023/08/12 10:07:53;;;;;;;1.00;0.90;;;26.90;72.10;;;;;;5055010;28;20104;-77
2023/08/12 10:10:20;;;;;;;0.90;0.90;;;27.10;69.60;;;;;;5054845;28;20033;-77
2023/08/12 10:12:47;;;;;;;0.85;0.85;;;27.20;68.70;;;;;;5036715;28;20091;-78
2023/08/12 10:15:13;;;;;;;1.65;0.98;;;27.20;68.70;;;;;;5055192;28;20048;-78
2023/08/12 10:17:41;;;;;;;2.65;1.05;;;27.10;64.70;;;;;;5054379;28;20394;-76
2023/08/12 10:20:08;;;;;;;0.82;0.70;;;27.10;63.70;;;;;;5040480;28;20021;-78
2023/08/12 10:22:36;;;;;;;1.27;1.17;;;27.10;63.00;;;;;;5058401;28;20104;-78
2023/08/12 10:25:03;;;;;;;0.80;0.80;;;27.10;64.90;;;;;;5038479;28;20479;-79
2023/08/12 10:27:29;;;;;;;1.42;1.23;;;27.20;66.50;;;;;;5056429;28;20021;-78
2023/08/12 10:29:58;;;;;;;1.10;1.00;;;27.30;67.00;;;;;;5056452;28;20190;-78
2023/08/12 10:32:24;;;;;;;1.50;1.30;;;27.30;66.60;;;;;;5056458;28;20056;-78
2023/08/12 10:34:59;;;;;;;1.00;0.90;;;27.40;64.60;;;;;;5056238;28;20029;-78
2023/08/12 10:37:25;;;;;;;;;;;27.40;63.50;;;;;;5056041;28;20089;-77
2023/08/12 10:39:55;;;;;;;0.60;0.50;;;27.50;62.20;;;;;;5055785;28;19971;-78
2023/08/12 10:42:39;;;;;;;3.65;1.17;;;27.60;57.40;;;;;;5037653;28;20021;-78
2023/08/12 10:45:08;;;;;;;0.77;0.70;;;27.70;59.00;;;;;;5056378;28;20475;-78
2023/08/12 10:47:38;;;;;;;2.95;1.20;;;27.80;59.90;;;;;;5037383;28;20099;-79
2023/08/12 10:50:04;;;;;;;2.67;2.28;;;27.60;61.90;;;;;;5055704;28;20024;-79
2023/08/12 10:52:31;;;;;;;1.98;1.80;;;27.50;61.20;;;;;;5055180;28;20497;-78
2023/08/12 10:55:20;;;;;;;2.70;1.02;;;27.50;62.50;;;;;;5055388;28;20459;-78
2023/08/12 10:57:47;;;;;;;4.45;2.75;;;27.60;63.40;;;;;;5036634;28;20513;-77
2023/08/12 11:00:24;;;;;;;1.02;0.93;;;27.30;62.10;;;;;;5037379;28;20032;-78
2023/08/12 11:02:51;;;;;;;0.95;0.95;;;27.40;65.20;;;;;;5055337;28;20482;-78
2023/08/12 11:05:20;;;;;;;5.30;1.35;;;27.60;67.30;;;;;;5051428;28;20036;-79
2023/08/12 11:07:56;;;;;;;1.98;1.00;;;27.60;65.10;;;;;;5032661;28;20013;-78
2023/08/12 11:10:26;;;;;;;1.20;0.80;;;27.50;65.20;;;;;;5053659;28;20021;-77
2023/08/12 11:12:51;;;;;;;0.95;0.88;;;27.60;64.30;;;;;;5035591;28;20510;-77
2023/08/12 11:15:19;;;;;;;1.38;0.90;;;27.50;66.10;;;;;;5036150;28;20025;-76
2023/08/12 11:17:46;;;;;;;2.92;1.60;;;27.40;64.00;;;;;;5034560;28;20063;-78
2023/08/12 11:20:13;;;;;;;0.65;0.65;;;27.30;64.90;;;;;;5054396;28;20025;-78
2023/08/12 11:22:43;;;;;;;0.80;0.80;;;27.40;66.20;;;;;;5054293;28;20096;-79
2023/08/12 11:25:14;;;;;;;1.00;0.90;;;27.70;65.20;;;;;;5053723;28;20063;-78
2023/08/12 11:27:45;;;;;;;1.08;0.80;;;27.70;64.40;;;;;;5052401;28;20039;-77
2023/08/12 11:30:14;;;;;;;1.92;1.00;;;27.80;63.80;;;;;;5035060;28;20120;-77
2023/08/12 11:32:44;;;;;;;4.28;2.50;;;27.70;64.30;;;;;;5035155;28;20033;-78
2023/08/12 11:35:12;;;;;;;1.50;1.40;;;27.70;63.00;;;;;;5052957;28;20108;-77
2023/08/12 11:37:42;;;;;;;1.42;0.90;;;27.50;63.20;;;;;;5056604;28;20029;-76
2023/08/12 11:40:09;;;;;;;1.13;1.00;;;27.40;62.60;;;;;;5039122;28;20029;-77
2023/08/12 11:42:39;;;;;;;1.30;1.10;;;27.60;62.60;;;;;;5038991;28;20052;-76
2023/08/12 11:45:06;;;;;;;3.28;0.88;;;27.70;61.40;;;;;;5057036;28;20474;-77
2023/08/12 11:47:33;;;;;;;4.85;1.08;;;27.80;60.50;;;;;;5056236;28;20025;-77
2023/08/12 11:49:58;;;;;;;2.22;0.73;;;27.80;63.00;;;;;;5038675;28;20025;-77
2023/08/12 11:52:25;;;;;;;1.17;0.88;;;27.90;66.10;;;;;;5056116;28;20070;-77
2023/08/12 11:54:51;;;;;;;1.25;1.08;;;28.00;65.50;;;;;;5056715;28;20102;-77
2023/08/12 11:57:17;;;;;;;1.15;0.90;;;28.00;63.50;;;;;;5038217;28;20512;-77
2023/08/12 11:59:42;;;;;;;3.92;0.98;;;28.10;62.80;;;;;;5037683;28;20035;-78
2023/08/12 12:02:09;;;;;;;1.63;1.00;;;28.20;64.20;;;;;;5056391;28;20023;-77
2023/08/12 12:04:35;;;;;;;1.30;1.08;;;28.20;63.30;;;;;;5055906;28;20025;-79
2023/08/12 12:07:05;;;;;;;1.02;0.90;;;28.00;62.60;;;;;;5056327;28;20107;-78
2023/08/12 12:09:34;;;;;;;1.67;1.10;;;28.00;61.60;;;;;;5038832;28;20029;-78
2023/08/12 12:12:00;;;;;;;2.40;1.35;;;27.80;64.20;;;;;;5038579;28;20102;-78
2023/08/12 12:14:26;;;;;;;1.30;0.80;;;27.90;65.50;;;;;;5055686;28;20692;-78
2023/08/12 12:16:51;;;;;;;1.98;1.20;;;27.90;65.70;;;;;;5039426;28;20021;-78
2023/08/12 12:19:19;;;;;;;2.17;1.33;;;27.90;63.90;;;;;;5057449;28;20025;-78
2023/08/12 12:21:47;;;;;;;0.90;0.80;;;27.90;62.30;;;;;;5039215;28;20044;-77
2023/08/12 12:24:13;;;;;;;2.25;0.90;;;27.90;63.00;;;;;;5038767;28;20025;-77
2023/08/12 12:26:39;;;;;;;1.52;0.82;;;28.00;63.30;;;;;;5055938;28;20108;-76
2023/08/12 12:29:05;;;;;;;0.80;0.80;;;28.10;65.00;;;;;;5056800;28;20497;-77
2023/08/12 12:31:35;;;;;;;0.98;0.90;;;28.30;63.10;;;;;;5038369;28;20031;-78
2023/08/12 12:34:05;;;;;;;1.23;1.05;;;28.30;62.80;;;;;;5038797;28;20386;-78
2023/08/12 12:36:33;;;;;;;0.98;0.80;;;28.30;61.40;;;;;;5037926;28;20159;-78
2023/08/12 12:38:59;;;;;;;0.90;0.75;;;28.00;61.80;;;;;;5056235;28;20056;-78
2023/08/12 12:41:25;;;;;;;0.68;0.68;;;28.10;63.70;;;;;;5037528;28;20102;-78
2023/08/12 12:43:50;;;;;;;1.60;0.90;;;28.00;62.80;;;;;;5055752;28;20025;-78
2023/08/12 12:46:16;;;;;;;0.82;0.80;;;28.20;62.40;;;;;;5038023;28;20025;-78